Terminal Aerodrome Forecast
Issued by NWS Louisville, KY

Home | Current Version | Previous Version | Text Only | Print | Product List | Glossary On
Versions: 1 2 3 4 5 6 7 8 9 10 11 12 13 14 15 16 17
807
FTUS43 KLMK 170523
TAFLEX
TAF
KLEX 170523Z 1706/1806 19006KT P6SM SCT200 WS017/24038KT
     FM171300 22012G19KT P6SM FEW250
     FM180000 20008KT P6SM SCT250=

USA.gov is the U.S. government's official web portal to all federal, state and local government web resources and services.